Boone Observed Data For Previous 48 Hours

Caption
Day and Hour Reservoir Elevation (behind dam)* Tailwater Elevation (below dam)* Average Hourly Discharge*
12/10/2018 2 AM EST 1,351.83 1,263.64 3,521
12/10/2018 3 AM EST 1,351.87 1,263.87 3,457
12/10/2018 4 AM EST 1,351.92 1,263.84 3,437
12/10/2018 5 AM EST 1,351.95 1,263.52 3,546
12/10/2018 6 AM EST 1,351.92 1,264.46 4,180
12/10/2018 7 AM EST 1,351.83 1,264.88 7,621
12/10/2018 8 AM EST 1,351.75 1,264.80 7,354
12/10/2018 9 AM EST 1,351.67 1,264.85 6,762
12/10/2018 10 AM EST 1,351.60 1,264.38 6,428
12/10/2018 11 AM EST 1,351.53 1,264.36 6,482
12/10/2018 12 PM EST 1,351.56 1,263.72 3,537
12/10/2018 1 PM EST 1,351.61 1,263.51 3,352
12/10/2018 2 PM EST 1,351.64 1,263.48 3,495
12/10/2018 3 PM EST 1,351.67 1,263.71 3,419
12/10/2018 4 PM EST 1,351.73 1,263.65 3,429
12/10/2018 5 PM EST 1,351.68 1,264.38 3,774
12/10/2018 6 PM EST 1,351.64 1,264.53 7,553
12/10/2018 7 PM EST 1,351.58 1,264.08 6,863
12/10/2018 8 PM EST 1,351.55 1,264.52 6,328
12/10/2018 9 PM EST 1,351.51 1,264.06 6,291
12/10/2018 10 PM EST 1,351.49 1,264.06 6,713
12/10/2018 11 PM EST 1,351.44 1,264.57 6,407
12/11/2018 12 AM EST 1,351.51 1,263.59 3,412
12/11/2018 1 AM EST 1,351.61 1,263.53 3,607
12/11/2018 2 AM EST 1,351.68 1,263.68 3,463
12/11/2018 3 AM EST 1,351.75 1,263.60 3,610
12/11/2018 4 AM EST 1,351.83 1,263.74 3,654
12/11/2018 5 AM EST 1,351.82 1,264.28 4,041
12/11/2018 6 AM EST 1,351.80 1,264.52 7,706
12/11/2018 7 AM EST 1,351.73 1,263.99 7,098
12/11/2018 8 AM EST 1,351.66 1,264.41 6,646
12/11/2018 9 AM EST 1,351.61 1,264.22 6,468
12/11/2018 10 AM EST 1,351.50 1,264.54 6,292
12/11/2018 11 AM EST 1,351.40 1,264.01 6,773
12/11/2018 12 PM EST 1,351.30 1,264.46 6,266
12/11/2018 1 PM EST 1,351.31 1,263.53 3,380
12/11/2018 2 PM EST 1,351.43 1,263.47 3,179
12/11/2018 3 PM EST 1,351.49 1,263.38 3,116
12/11/2018 4 PM EST 1,351.57 1,263.62 3,159
12/11/2018 5 PM EST 1,351.65 1,263.32 3,526
12/11/2018 6 PM EST 1,351.71 1,263.36 3,933
12/11/2018 7 PM EST 1,351.71 1,264.39 3,812
12/11/2018 8 PM EST 1,351.71 1,264.75 7,593
12/11/2018 9 PM EST 1,351.64 1,264.74 7,212
12/11/2018 10 PM EST 1,351.56 1,264.74 7,112
12/11/2018 11 PM EST 1,351.51 1,264.57 7,121
12/12/2018 12 AM EST 1,351.56 1,263.94 3,413
12/12/2018 1 AM EST 1,351.66 1,263.62 3,739
12/12/2018 2 AM EST 1,351.74 1,263.96 3,596
12/12/2018 3 AM EST 1,351.79 1,264.00 3,421

Elevations are in feet above sea level. Discharges are in cubic feet per second and are reported at the end of the hour.